Hanover, Minnesota
Current Conditions -  °F | °C
As of 4:35 PM on Monday 24 Nov 2014 (Local Time) from KCFE Reporting Station
Overcast Overcast  
Wind Chill:   Ceiling: 9000
Heat Index: 17°   Visibility: 10mi
Dew Point:   Wind: 16mph
Humidity: 72%   Direction: 290°WNW
Pressure: 29.7"   Gusts: 23mph
Location:  45.16°N, 93.66°W
Report Text: KCFE 242235Z AUTO 29014G20KT 10SM OVC090 M08/M13 A2970 RMK AO2 T10851127
Loading
Personal Weather Stations






























Interactive Weather Map New forecast layout! Learn more

10-Day Weather Forecast

Advertisements
Track Severe Weather on mobile